Time;durP1;ratioP1;P1;durP2;ratioP2;P2;SDS_P1;SDS_P2;PMS_P1;PMS_P2;Temp;Humidity;BMP_temperature;BMP_pressure;BME280_temperature;BME280_humidity;BME280_pressure;Samples;Min_cycle;Max_cycle;Signal;HPM_P1;HPM_P2
2023/07/26 00:04:18;;;;;;;;;;;;;;;19.73;100.00;93403.31;5116140;28;20054;-85
2023/07/26 00:06:44;;;;;;;17.73;3.60;;;;;;;19.97;100.00;93406.81;5115788;28;19911;-85
2023/07/26 00:09:09;;;;;;;18.85;3.75;;;;;;;19.98;100.00;93389.75;5096979;28;20369;-85
2023/07/26 00:11:35;;;;;;;19.33;4.15;;;;;;;19.99;100.00;93390.53;5097443;28;20043;-85
2023/07/26 00:14:03;;;;;;;13.93;3.63;;;;;;;19.96;100.00;93399.97;5097398;28;20464;-86
2023/07/26 00:16:28;;;;;;;15.30;3.42;;;;;;;19.98;100.00;93394.31;5097819;28;20039;-85
2023/07/26 00:18:54;;;;;;;15.93;3.45;;;;;;;19.94;100.00;93393.44;5096669;28;20508;-85
2023/07/26 00:21:19;;;;;;;14.88;3.67;;;;;;;19.85;100.00;93401.59;5115603;28;20028;-85
2023/07/26 00:23:44;;;;;;;14.15;3.95;;;;;;;19.90;100.00;93399.44;5097226;28;20325;-85
2023/07/26 00:26:10;;;;;;;15.95;3.17;;;;;;;19.83;100.00;93399.31;5118414;28;20031;-85
2023/07/26 00:31:20;;;;;;;19.63;4.18;;;;;;;18.78;100.00;93392.47;5104276;28;20038;-85
2023/07/26 00:33:45;;;;;;;20.63;4.05;;;;;;;18.47;100.00;93391.34;5119722;28;20019;-85
2023/07/26 00:36:11;;;;;;;14.25;3.75;;;;;;;18.87;100.00;93394.97;5101679;28;20019;-85
2023/07/26 00:38:36;;;;;;;19.20;3.60;;;;;;;18.15;100.00;93393.22;5118666;28;20031;-85
2023/07/26 00:41:02;;;;;;;16.38;3.83;;;;;;;18.47;100.00;93398.56;5101214;28;20035;-85
2023/07/26 00:43:28;;;;;;;12.23;3.17;;;;;;;18.68;100.00;93397.53;5119767;28;20027;-85
2023/07/26 00:45:54;;;;;;;19.50;4.05;;;;;;;18.29;100.00;93392.81;5119665;28;20054;-84
2023/07/26 00:48:19;;;;;;;15.30;3.50;;;;;;;18.21;100.00;93392.59;5084081;28;20035;-85
2023/07/26 00:50:47;;;;;;;20.60;4.25;;;;;;;18.54;100.00;93403.28;5084244;28;20053;-85
2023/07/26 00:53:13;;;;;;;32.25;4.82;;;;;;;18.75;100.00;93406.44;5101559;28;20127;-85
2023/07/26 00:55:39;;;;;;;18.83;4.53;;;;;;;18.88;100.00;93416.97;5119630;28;20433;-85
2023/07/26 00:58:04;;;;;;;15.00;3.63;;;;;;;19.10;100.00;93412.19;5101166;28;20027;-85
2023/07/26 01:00:48;;;;;;;13.52;3.70;;;;;;;19.20;100.00;93411.66;5100475;28;20024;-85
2023/07/26 01:03:14;;;;;;;23.65;3.92;;;;;;;18.85;100.00;93415.00;5119391;28;20023;-84
2023/07/26 01:06:04;;;;;;;17.63;3.83;;;;;;;19.07;100.00;93414.41;5100661;28;20783;-85
2023/07/26 01:09:02;;;;;;;22.23;3.90;;;;;;;19.15;100.00;93415.38;5100869;28;20949;-85
2023/07/26 01:11:34;;;;;;;12.48;2.90;;;;;;;19.19;100.00;93407.47;5083710;28;20062;-85
2023/07/26 01:14:14;;;;;;;18.20;3.45;;;;;;;19.28;100.00;93402.75;5118799;28;20459;-85
2023/07/26 01:16:41;;;;;;;26.70;4.28;;;;;;;19.46;100.00;93408.44;5100679;28;20038;-86
2023/07/26 01:19:07;;;;;;;16.80;3.78;;;;;;;19.41;100.00;93415.91;5083093;28;20038;-86
2023/07/26 01:21:51;;;;;;;20.95;3.55;;;;;;;19.52;100.00;93422.22;5083313;28;20032;-85
2023/07/26 01:24:16;;;;;;;16.13;3.83;;;;;;;19.60;100.00;93423.16;5118658;28;20042;-84
2023/07/26 01:26:42;;;;;;;15.57;3.13;;;;;;;19.44;100.00;93417.88;5083335;28;20023;-85
2023/07/26 01:29:07;;;;;;;22.80;4.15;;;;;;;19.71;100.00;93415.38;5099546;28;20031;-85
2023/07/26 01:34:17;;;;;;;19.55;3.40;;;;;;;19.45;100.00;93412.22;5103009;28;20096;-85
2023/07/26 01:37:20;;;;;;;17.75;3.83;;;;;;;19.46;100.00;93407.66;5099960;28;20031;-85
2023/07/26 01:39:46;;;;;;;20.83;3.35;;;;;;;19.31;100.00;93407.34;5117756;28;20039;-85
2023/07/26 01:42:17;;;;;;;14.65;2.83;;;;;;;18.97;100.00;93420.22;5099947;28;20436;-85
2023/07/26 01:44:42;;;;;;;21.90;3.75;;;;;;;19.20;100.00;93406.34;5100528;28;20031;-85
2023/07/26 01:47:07;;;;;;;19.15;3.90;;;;;;;19.27;100.00;93401.19;5118184;28;20027;-85
2023/07/26 01:49:33;;;;;;;17.80;3.63;;;;;;;19.20;100.00;93401.81;5099641;28;20035;-85
2023/07/26 01:51:58;;;;;;;20.13;3.42;;;;;;;19.28;100.00;93397.44;5100111;28;20039;-85
2023/07/26 01:54:24;;;;;;;18.80;3.72;;;;;;;18.82;100.00;93391.81;5100039;28;20436;-85
2023/07/26 01:56:50;;;;;;;12.73;3.17;;;;;;;18.96;100.00;93394.00;5117762;28;20024;-85
2023/07/26 01:59:15;;;;;;;14.80;3.33;;;;;;;18.91;100.00;93397.69;5117252;28;20030;-85
2023/07/26 02:05:03;;;;;;;15.07;3.08;;;;;;;18.69;100.00;93402.50;5117849;28;20035;-84
2023/07/26 02:07:34;;;;;;;21.40;3.80;;;;;;;18.43;100.00;93408.28;5117790;28;20356;-84
2023/07/26 02:10:01;;;;;;;21.10;3.70;;;;;;;18.53;100.00;93415.00;5082457;28;20511;-85
2023/07/26 02:12:45;;;;;;;18.55;3.63;;;;;;;18.54;100.00;93422.59;5099546;28;20023;-85
2023/07/26 02:15:10;;;;;;;19.60;3.80;;;;;;;18.58;100.00;93425.34;5118061;28;20046;-85
2023/07/26 02:23:41;;;;;;;17.42;2.95;;;;;;;19.41;100.00;93432.59;5117633;28;20081;-85
2023/07/26 02:26:25;;;;;;;19.98;3.83;;;;;;;19.26;100.00;93439.50;5098939;28;20043;-85
2023/07/26 02:28:50;;;;;;;17.65;3.42;;;;;;;19.52;100.00;93443.47;5117120;28;20076;-85
2023/07/26 02:31:18;;;;;;;18.77;3.65;;;;;;;19.37;100.00;93453.00;5099120;28;20661;-85
2023/07/26 02:33:44;;;;;;;15.13;3.78;;;;;;;18.98;100.00;93443.00;5099128;28;20031;-85
2023/07/26 02:36:09;;;;;;;29.60;5.43;;;;;;;18.84;100.00;93450.63;5098439;28;20478;-85
2023/07/26 02:38:35;;;;;;;17.42;3.15;;;;;;;19.01;100.00;93458.25;5116664;28;20024;-85
2023/07/26 02:41:19;;;;;;;15.73;3.75;;;;;;;19.03;100.00;93449.97;5098887;28;20028;-85
2023/07/26 02:46:28;;;;;;;18.05;3.60;;;;;;;18.97;100.00;93461.91;5117265;28;20030;-85
2023/07/26 02:51:38;;;;;;;26.45;4.63;;;;;;;18.77;100.00;93464.47;5101123;28;20104;-84
2023/07/26 02:54:03;;;;;;;19.05;3.80;;;;;;;19.06;100.00;93473.91;5098517;28;20035;-85
2023/07/26 02:56:28;;;;;;;17.58;3.58;;;;;;;18.93;100.00;93477.75;5116646;28;20073;-84
2023/07/26 02:58:54;;;;;;;19.00;3.33;;;;;;;19.10;100.00;93481.97;5077671;28;20039;-85
2023/07/26 03:01:19;;;;;;;17.27;3.67;;;;;;;19.03;100.00;93487.88;5099116;28;20027;-85
2023/07/26 03:03:45;;;;;;;14.60;3.22;;;;;;;18.99;100.00;93488.88;5116391;28;20023;-84
2023/07/26 03:06:12;;;;;;;15.23;3.38;;;;;;;19.16;100.00;93491.25;5081478;28;20124;-84
2023/07/26 03:08:37;;;;;;;18.83;3.40;;;;;;;19.06;100.00;93487.19;5097552;28;20067;-85
2023/07/26 03:14:24;;;;;;;17.00;3.38;;;;;;;18.34;100.00;93495.94;5116405;28;20092;-85
2023/07/26 03:16:49;;;;;;;18.85;3.65;;;;;;;18.14;100.00;93503.75;5097965;28;20077;-85
2023/07/26 03:19:34;;;;;;;15.43;3.58;;;;;;;18.70;100.00;93496.91;5097550;28;20027;-84
2023/07/26 03:21:59;;;;;;;15.40;3.28;;;;;;;18.82;100.00;93496.06;5098006;28;20027;-85
2023/07/26 03:24:25;;;;;;;18.63;3.72;;;;;;;18.86;100.00;93496.91;5116269;28;20024;-85
2023/07/26 03:26:50;;;;;;;19.23;3.53;;;;;;;18.34;100.00;93503.91;5080943;28;20087;-84
2023/07/26 03:29:15;;;;;;;19.05;3.83;;;;;;;17.83;100.00;93509.66;5096713;28;20032;-84
2023/07/26 03:31:41;;;;;;;19.35;3.78;;;;;;;17.75;100.00;93514.75;5098086;28;20023;-85
2023/07/26 03:34:06;;;;;;;16.25;3.35;;;;;;;17.80;100.00;93519.06;5116175;28;20031;-85
2023/07/26 03:36:31;;;;;;;19.00;3.63;;;;;;;18.42;100.00;93518.91;5097631;28;20130;-84
2023/07/26 03:38:57;;;;;;;17.98;3.25;;;;;;;18.76;100.00;93527.38;5097213;28;20023;-85
2023/07/26 03:41:22;;;;;;;15.23;3.13;;;;;;;18.90;100.00;93520.88;5097695;28;20130;-84
2023/07/26 03:43:48;;;;;;;14.05;2.90;;;;;;;18.90;100.00;93521.66;5097712;28;20102;-85
2023/07/26 03:48:57;;;;;;;18.63;4.18;;;;;;;18.98;100.00;93525.28;5099999;28;20098;-84
2023/07/26 03:54:26;;;;;;;16.35;3.47;;;;;;;18.75;100.00;93533.78;5115898;28;20050;-85
2023/07/26 03:57:10;;;;;;;16.83;3.42;;;;;;;18.76;100.00;93539.88;5115599;28;20057;-85
2023/07/26 04:02:19;;;;;;;;;;;;;;;17.51;100.00;93547.31;5100999;28;20039;-85
2023/07/26 04:04:45;;;;;;;23.77;3.37;;;;;;;17.33;100.00;93547.50;5097777;28;19967;-85
2023/07/26 04:07:10;;;;;;;19.08;3.53;;;;;;;17.31;100.00;93548.97;5115714;28;20269;-85
2023/07/26 04:09:36;;;;;;;15.18;3.45;;;;;;;17.79;100.00;93550.06;5096904;28;20042;-84
2023/07/26 04:12:20;;;;;;;19.67;3.63;;;;;;;17.43;100.00;93550.84;5097056;28;20089;-85
2023/07/26 04:15:04;;;;;;;11.57;2.95;;;;;;;17.88;100.00;93547.28;5097281;28;20034;-85
2023/07/26 04:17:29;;;;;;;19.25;3.90;;;;;;;18.01;100.00;93561.31;5115582;28;20032;-84
2023/07/26 04:22:40;;;;;;;18.55;3.63;;;;;;;17.44;100.00;93571.72;5100745;28;20501;-85
2023/07/26 04:25:07;;;;;;;19.45;4.07;;;;;;;17.86;100.00;93568.06;5114516;28;20055;-84
2023/07/26 04:27:51;;;;;;;20.27;3.80;;;;;;;17.82;100.00;93572.47;5097037;28;20436;-84
2023/07/26 04:30:16;;;;;;;18.90;4.28;;;;;;;18.00;100.00;93575.63;5115232;28;20046;-84
2023/07/26 04:38:28;;;;;;;13.77;3.83;;;;;;;17.93;100.00;93592.13;5115110;28;20385;-84
2023/07/26 04:41:13;;;;;;;20.63;4.03;;;;;;;17.64;100.00;93588.56;5115040;28;20035;-84
2023/07/26 04:49:44;;;;;;;12.90;3.45;;;;;;;17.95;100.00;93603.16;5114644;28;20173;-84
2023/07/26 04:52:09;;;;;;;9.80;3.13;;;;;;;18.04;100.00;93610.22;5096651;28;20129;-84
2023/07/26 04:54:35;;;;;;;11.65;3.35;;;;;;;17.59;100.00;93611.88;5096817;28;20034;-84
2023/07/26 04:57:00;;;;;;;10.60;2.95;;;;;;;17.94;100.00;93611.44;5114807;28;20042;-84
2023/07/26 04:59:44;;;;;;;13.25;3.13;;;;;;;18.08;100.00;93619.09;5114060;28;20120;-84
2023/07/26 05:02:09;;;;;;;11.80;3.40;;;;;;;17.92;100.00;93609.09;5114862;28;20027;-85
2023/07/26 05:04:35;;;;;;;10.90;3.47;;;;;;;18.18;100.00;93620.50;5115034;28;20030;-83
2023/07/26 05:07:00;;;;;;;14.25;3.33;;;;;;;18.26;100.00;93609.00;5114716;28;20117;-84
2023/07/26 05:09:26;;;;;;;10.80;3.13;;;;;;;18.27;100.00;93623.03;5095554;28;20044;-84
2023/07/26 05:11:51;;;;;;;11.02;2.90;;;;;;;18.34;100.00;93620.56;5115249;28;20034;-85
2023/07/26 05:17:01;;;;;;;11.65;2.75;;;;;;;18.61;100.00;93640.31;5103234;28;20042;-86
2023/07/26 05:19:26;;;;;;;11.00;2.92;;;;;;;18.51;100.00;93628.28;5083240;28;20122;-85
2023/07/26 05:21:51;;;;;;;15.05;3.50;;;;;;;18.36;100.00;93631.63;5084067;28;20031;-87
2023/07/26 05:24:17;;;;;;;9.95;2.58;;;;;;;18.60;100.00;93636.13;5119084;28;20340;-86
2023/07/26 05:27:01;;;;;;;9.38;2.83;;;;;;;18.68;100.00;93644.25;5118894;28;20118;-85
2023/07/26 05:29:26;;;;;;;9.50;2.90;;;;;;;18.81;100.00;93640.47;5117697;28;20713;-85
2023/07/26 05:31:52;;;;;;;15.48;3.42;;;;;;;18.54;100.00;93647.28;5100002;28;20043;-86
2023/07/26 05:34:17;;;;;;;13.27;3.28;;;;;;;19.00;100.00;93653.13;5109651;28;20067;-85
2023/07/26 05:36:43;;;;;;;10.70;2.85;;;;;;;18.74;100.00;93650.88;5046379;28;20032;-85
2023/07/26 05:41:53;;;;;;;10.48;2.30;;;;;;;19.29;100.00;93653.09;5097950;28;20042;-86
2023/07/26 05:44:37;;;;;;;11.50;2.78;;;;;;;18.82;100.00;93657.94;5079846;28;20036;-85
2023/07/26 05:47:03;;;;;;;12.35;2.60;;;;;;;19.02;100.00;93655.47;5097742;28;20114;-86
2023/07/26 05:49:28;;;;;;;10.05;2.63;;;;;;;19.03;100.00;93663.06;5079137;28;20043;-86
2023/07/26 05:51:54;;;;;;;8.57;2.15;;;;;;;18.70;100.00;93669.34;5079590;28;20437;-85
2023/07/26 05:54:19;;;;;;;5.88;1.90;;;;;;;18.68;100.00;93671.56;5090081;28;20039;-85
2023/07/26 05:56:45;;;;;;;7.95;2.17;;;;;;;19.15;100.00;93674.75;5118390;28;20053;-85
2023/07/26 05:59:11;;;;;;;8.82;2.15;;;;;;;18.82;100.00;93678.41;5117622;28;20034;-85
2023/07/26 06:01:36;;;;;;;10.68;2.80;;;;;;;18.91;100.00;93673.72;5082654;28;20047;-85
2023/07/26 06:04:02;;;;;;;9.05;2.65;;;;;;;18.86;100.00;93671.28;5124509;27;20076;-85
2023/07/26 06:06:28;;;;;;;11.68;3.20;;;;;;;18.77;100.00;93682.81;5077184;28;20027;-86
2023/07/26 06:08:54;;;;;;;8.90;2.08;;;;;;;19.28;100.00;93681.56;5099246;28;20054;-85
2023/07/26 06:11:19;;;;;;;6.75;1.67;;;;;;;19.70;100.00;93690.22;5118274;28;20032;-86
2023/07/26 06:13:45;;;;;;;8.27;1.95;;;;;;;19.88;100.00;93685.34;5099893;28;20047;-86
2023/07/26 06:16:29;;;;;;;4.68;1.80;;;;;;;20.36;100.00;93690.63;5118091;28;20035;-85
2023/07/26 06:18:55;;;;;;;5.72;1.80;;;;;;;20.25;100.00;93701.03;5117611;28;20375;-86
2023/07/26 06:21:20;;;;;;;5.20;1.75;;;;;;;20.53;100.00;93707.34;5099303;28;20087;-86
2023/07/26 06:23:46;;;;;;;4.20;1.42;;;;;;;20.87;100.00;93713.03;5117610;27;20030;-86
2023/07/26 06:26:11;;;;;;;4.93;1.77;;;;;;;20.77;100.00;93717.00;5082994;28;20432;-86
2023/07/26 06:28:38;;;;;;;4.30;1.85;;;;;;;20.92;100.00;93719.97;5099398;28;20176;-86
2023/07/26 06:31:04;;;;;;;4.43;1.67;;;;;;;20.94;100.00;93731.81;5087366;28;20121;-85
2023/07/26 06:33:31;;;;;;;7.00;1.55;;;;;;;20.77;91.89;93738.28;5079025;28;20445;-85
2023/07/26 06:35:57;;;;;;;5.50;1.70;;;;;;;20.67;96.67;93736.94;5062353;28;20055;-85
2023/07/26 06:38:23;;;;;;;4.72;2.00;;;;;;;20.93;98.14;93748.91;5114374;27;20523;-85
2023/07/26 06:40:48;;;;;;;3.40;1.83;;;;;;;21.19;100.00;93755.53;5136261;27;20117;-85
2023/07/26 06:43:14;;;;;;;6.53;1.98;;;;;;;21.16;100.00;93750.91;5137563;27;20031;-85
2023/07/26 06:45:45;;;;;;;5.25;1.50;;;;;;;21.44;100.00;93756.00;5119217;27;20030;-85
2023/07/26 06:48:13;;;;;;;3.17;1.48;;;;;;;21.54;100.00;93754.69;5102630;27;20389;-85
2023/07/26 06:53:44;;;;;;;5.75;1.52;;;;;;;21.83;86.33;93757.91;5137597;27;20121;-85
2023/07/26 06:58:54;;;;;;;6.20;1.75;;;;;;;20.61;84.16;93763.03;5121445;27;20030;-85
2023/07/26 07:04:04;;;;;;;3.60;1.20;;;;;;;21.19;86.41;93761.63;5137422;27;20080;-85
2023/07/26 07:06:29;;;;;;;2.25;1.30;;;;;;;21.16;78.37;93765.00;5137111;27;20027;-85
2023/07/26 07:08:55;;;;;;;5.38;1.60;;;;;;;21.40;88.93;93760.50;5118301;27;20050;-85
2023/07/26 07:11:39;;;;;;;4.35;1.33;;;;;;;21.00;75.46;93759.72;5119120;27;20031;-86
2023/07/26 07:19:52;;;;;;;3.35;1.30;;;;;;;20.93;79.76;93764.88;5120876;27;20340;-85
2023/07/26 07:22:36;;;;;;;4.90;1.25;;;;;;;21.05;90.05;93782.63;5137141;27;20031;-84
2023/07/26 07:25:03;;;;;;;5.40;1.05;;;;;;;21.16;74.32;93783.66;5080536;28;20032;-87
2023/07/26 07:27:30;;;;;;;6.50;1.42;;;;;;;21.07;78.81;93777.72;5107198;28;20114;-85
2023/07/26 07:29:56;;;;;;;2.85;1.08;;;;;;;21.51;85.68;93782.03;5114761;28;20048;-87
2023/07/26 07:32:21;;;;;;;4.95;1.40;;;;;;;21.68;89.69;93790.75;5097847;28;20039;-85
2023/07/26 07:34:47;;;;;;;4.15;1.40;;;;;;;21.92;79.55;93804.88;5096925;28;20036;-86
2023/07/26 07:37:12;;;;;;;4.07;1.15;;;;;;;21.11;72.41;93785.81;5097554;28;20039;-85
2023/07/26 07:39:38;;;;;;;2.70;1.13;;;;;;;21.52;93.96;93802.25;5097289;28;20042;-85
2023/07/26 07:42:03;;;;;;;5.85;1.38;;;;;;;21.64;80.35;93801.31;5097768;28;20066;-86
2023/07/26 07:44:30;;;;;;;6.22;1.13;;;;;;;21.60;74.39;93800.50;5096195;28;20039;-85
2023/07/26 07:47:14;;;;;;;2.80;1.17;;;;;;;21.93;79.04;93803.75;5097555;28;20027;-85
2023/07/26 07:49:39;;;;;;;2.95;1.40;;;;;;;22.01;73.40;93816.88;5115504;28;20497;-85
2023/07/26 07:52:05;;;;;;;3.22;1.52;;;;;;;22.30;73.35;93806.69;5097593;28;20118;-85
2023/07/26 07:59:59;;;;;;;3.58;1.13;;;;;;;22.55;72.92;93817.03;5115454;28;20030;-85
2023/07/26 08:02:24;;;;;;;2.58;1.20;;;;;;;22.81;70.21;93820.88;5097685;28;20072;-86
2023/07/26 08:04:50;;;;;;;4.40;1.20;;;;;;;22.50;68.89;93832.59;5098007;28;20020;-85
2023/07/26 08:07:16;;;;;;;3.50;1.23;;;;;;;22.53;71.10;93826.56;5115974;28;20038;-85
2023/07/26 08:10:00;;;;;;;4.25;1.30;;;;;;;22.70;72.05;93830.63;5115109;28;20035;-85
2023/07/26 08:15:10;;;;;;;3.67;1.23;;;;;;;22.20;68.60;93830.53;5100370;28;20031;-85
2023/07/26 08:17:35;;;;;;;6.25;1.40;;;;;;;22.49;68.61;93836.38;5079654;28;20791;-85
2023/07/26 08:20:01;;;;;;;2.22;1.13;;;;;;;22.72;68.71;93834.47;5096674;28;20031;-84
2023/07/26 08:22:28;;;;;;;3.35;1.13;;;;;;;22.95;70.69;93839.00;5114586;28;20122;-85
2023/07/26 08:25:12;;;;;;;3.50;1.05;;;;;;;22.75;65.54;93841.00;5096490;28;20536;-85
2023/07/26 08:27:56;;;;;;;3.20;1.35;;;;;;;22.65;69.96;93849.63;5115102;28;20027;-85
2023/07/26 08:30:22;;;;;;;2.33;1.13;;;;;;;22.62;73.68;93853.00;5097024;28;20122;-85
2023/07/26 08:33:06;;;;;;;2.33;1.08;;;;;;;22.87;72.31;93850.72;5097412;28;20160;-84
2023/07/26 08:35:32;;;;;;;2.38;1.25;;;;;;;22.58;68.28;93852.94;5115269;28;20028;-85
2023/07/26 08:37:57;;;;;;;3.22;1.27;;;;;;;22.35;66.69;93853.66;5080444;28;20030;-85
2023/07/26 08:40:23;;;;;;;2.63;1.17;;;;;;;22.33;69.96;93861.25;5096758;28;20436;-85
2023/07/26 08:42:49;;;;;;;4.82;1.20;;;;;;;22.30;66.57;93859.31;5097160;28;20050;-84
2023/07/26 08:45:15;;;;;;;4.07;1.13;;;;;;;22.77;72.07;93867.34;5096490;28;20061;-85
2023/07/26 08:47:42;;;;;;;4.25;1.10;;;;;;;22.63;69.41;93867.88;5100505;28;20031;-84
2023/07/26 08:52:52;;;;;;;4.53;1.00;;;;;;;23.44;72.98;93874.81;5119025;28;20046;-85
2023/07/26 08:55:18;;;;;;;2.38;1.08;;;;;;;23.57;69.42;93879.94;5119170;28;20031;-84
2023/07/26 08:57:46;;;;;;;2.95;1.30;;;;;;;23.00;67.40;93876.09;5101102;28;20031;-85
2023/07/26 09:00:12;;;;;;;3.45;1.20;;;;;;;22.92;65.51;93885.13;5100724;28;20493;-87
2023/07/26 09:02:38;;;;;;;3.05;1.45;;;;;;;22.33;65.37;93874.59;5119566;28;20031;-84
2023/07/26 09:05:04;;;;;;;1.98;1.20;;;;;;;22.35;65.00;93891.03;5101008;28;20035;-85
2023/07/26 09:07:30;;;;;;;2.17;0.90;;;;;;;22.64;69.92;93888.88;5118765;28;20019;-85
2023/07/26 09:10:14;;;;;;;3.03;0.95;;;;;;;23.07;68.02;93882.66;5118178;28;20031;-85
2023/07/26 09:12:39;;;;;;;1.65;1.02;;;;;;;23.43;66.56;93888.56;5118763;28;20028;-84
2023/07/26 09:15:05;;;;;;;3.95;1.40;;;;;;;23.46;63.70;93895.84;5119189;28;20031;-84
2023/07/26 09:20:40;;;;;;;4.55;1.25;;;;;;;23.55;66.61;93893.69;5118224;28;20042;-85
2023/07/26 09:23:10;;;;;;;5.13;1.52;;;;;;;23.30;61.14;93894.13;5118971;28;20031;-84
2023/07/26 09:25:40;;;;;;;7.90;1.30;;;;;;;23.36;66.48;93888.47;5118462;28;20078;-85
2023/07/26 09:28:15;;;;;;;3.47;1.17;;;;;;;23.80;68.32;93903.16;5100579;28;20081;-84
2023/07/26 09:33:28;;;;;;;1.85;1.05;;;;;;;23.16;58.92;93905.31;5118457;28;20039;-84
2023/07/26 09:36:12;;;;;;;2.85;1.10;;;;;;;23.78;64.50;93903.53;5100446;28;20096;-84
2023/07/26 09:39:16;;;;;;;3.22;1.33;;;;;;;23.78;59.19;93908.13;5117733;28;20114;-85
2023/07/26 09:41:42;;;;;;;4.45;1.30;;;;;;;23.51;64.64;93897.47;5118303;28;20033;-85
2023/07/26 09:44:15;;;;;;;2.97;1.60;;;;;;;22.79;64.56;93891.78;5099794;28;20084;-85
2023/07/26 09:46:53;;;;;;;;;;;;;;;22.88;65.26;93901.13;5100651;28;20023;-85
2023/07/26 09:49:19;;;;;;;6.20;1.17;;;;;;;23.65;66.73;93902.19;5099748;28;19916;-84
2023/07/26 09:51:45;;;;;;;3.35;1.13;;;;;;;23.92;64.99;93907.50;5118328;28;20031;-84
2023/07/26 09:56:55;;;;;;;1.40;1.10;;;;;;;24.24;61.26;93915.16;5102651;28;20100;-84
2023/07/26 09:59:24;;;;;;;2.70;1.10;;;;;;;24.00;55.89;93912.56;5116365;28;20015;-85
2023/07/26 10:01:51;;;;;;;2.42;1.20;;;;;;;24.01;63.19;93913.34;5099651;28;20521;-84
2023/07/26 10:07:31;;;;;;;2.85;1.10;;;;;;;24.66;60.89;93914.03;5117867;28;20030;-86
2023/07/26 10:09:58;;;;;;;1.90;1.15;;;;;;;24.60;58.79;93920.88;5117178;28;20035;-84
2023/07/26 10:12:25;;;;;;;2.50;0.95;;;;;;;24.50;60.67;93918.88;5117702;28;20023;-86
2023/07/26 10:14:55;;;;;;;3.00;1.20;;;;;;;24.73;59.57;93931.34;5099910;28;20027;-84
2023/07/26 10:17:40;;;;;;;3.28;1.20;;;;;;;24.25;60.78;93922.06;5116743;28;20184;-85
2023/07/26 10:20:08;;;;;;;3.20;1.42;;;;;;;24.16;61.11;93926.94;5117151;28;20058;-85
2023/07/26 10:22:34;;;;;;;4.15;1.10;;;;;;;23.63;61.77;93926.66;5082935;28;20031;-86
2023/07/26 10:27:44;;;;;;;2.70;1.20;;;;;;;24.03;58.97;93926.38;5117597;28;20671;-85
2023/07/26 10:30:10;;;;;;;2.33;1.10;;;;;;;24.08;60.20;93923.41;5098799;28;20036;-85
2023/07/26 10:32:44;;;;;;;4.13;1.10;;;;;;;24.01;60.11;93921.38;5082109;28;20035;-86
2023/07/26 10:35:10;;;;;;;4.28;1.13;;;;;;;24.23;56.81;93918.97;5098747;28;20026;-85
2023/07/26 10:37:36;;;;;;;3.72;1.05;;;;;;;24.10;60.15;93927.25;5117199;28;20024;-86
2023/07/26 10:40:43;;;;;;;1.42;1.00;;;;;;;24.26;59.13;93928.97;5081380;28;20030;-85
2023/07/26 10:43:21;;;;;;;2.22;0.80;;;;;;;24.63;59.39;93930.84;5116817;28;20488;-84
2023/07/26 10:46:06;;;;;;;2.67;1.17;;;;;;;24.12;55.81;93922.31;5116491;28;20108;-85
2023/07/26 10:48:39;;;;;;;2.03;1.10;;;;;;;23.89;54.49;93924.28;5098594;28;20122;-84
2023/07/26 10:51:50;;;;;;;1.97;1.10;;;;;;;24.75;58.65;93929.06;5098066;28;20088;-84
2023/07/26 10:54:48;;;;;;;2.65;1.17;;;;;;;24.41;55.83;93933.34;4977885;28;20037;-86
2023/07/26 10:57:31;;;;;;;1.73;1.05;;;;;;;23.95;53.60;93930.84;4978971;28;20058;-86
2023/07/26 11:00:09;;;;;;;2.35;0.98;;;;;;;24.37;55.79;93937.09;5092864;28;20134;-84
2023/07/26 11:02:44;;;;;;;3.92;1.20;;;;;;;24.45;57.51;93928.00;5099535;28;20081;-86
2023/07/26 11:05:29;;;;;;;2.42;1.00;;;;;;;25.26;51.25;93936.41;5116538;28;20451;-85
2023/07/26 11:08:00;;;;;;;1.13;0.88;;;;;;;24.88;54.72;93925.00;5116553;28;20023;-85
2023/07/26 11:13:15;;;;;;;1.25;1.00;;;;;;;24.49;54.87;93936.84;5116654;28;20038;-85
2023/07/26 11:15:43;;;;;;;1.13;0.90;;;;;;;25.29;52.61;93929.50;5106795;28;20040;-85
2023/07/26 11:18:29;;;;;;;4.57;1.13;;;;;;;25.71;50.98;93924.03;5117441;27;20023;-84
2023/07/26 11:20:55;;;;;;;2.80;1.20;;;;;;;25.19;51.18;93930.22;5136264;27;20039;-86
2023/07/26 11:23:22;;;;;;;1.17;0.63;;;;;;;25.91;53.01;93930.69;5131239;27;20027;-86
2023/07/26 11:28:55;;;;;;;1.48;0.95;;;;;;;25.68;47.17;93933.63;5115629;28;20057;-85
2023/07/26 11:31:22;;;;;;;1.92;1.02;;;;;;;24.79;48.96;93932.56;5116110;28;20398;-84
2023/07/26 11:33:48;;;;;;;2.42;1.10;;;;;;;24.90;46.89;93936.09;5097662;28;20061;-84
2023/07/26 11:36:19;;;;;;;2.08;1.00;;;;;;;24.93;49.25;93942.66;5102976;28;20024;-85
2023/07/26 11:38:45;;;;;;;1.48;0.82;;;;;;;25.02;56.05;93937.72;5077030;28;20081;-84
2023/07/26 11:41:35;;;;;;;2.13;1.10;;;;;;;24.34;54.49;93930.56;5077740;28;20027;-85
2023/07/26 11:44:00;;;;;;;4.82;1.00;;;;;;;24.50;54.60;93941.06;5095684;28;20040;-86
2023/07/26 11:46:28;;;;;;;2.95;1.10;;;;;;;24.88;56.27;93932.25;5077005;28;20050;-86
2023/07/26 11:48:54;;;;;;;2.47;0.85;;;;;;;25.23;56.43;93923.72;5077185;28;20056;-86
2023/07/26 11:54:23;;;;;;;3.42;1.10;;;;;;;25.13;53.47;93929.78;5095284;28;20113;-86
2023/07/26 11:57:07;;;;;;;2.53;0.95;;;;;;;25.73;53.50;93917.16;5076772;28;20448;-84
2023/07/26 11:59:32;;;;;;;2.20;1.30;;;;;;;25.86;56.01;93922.22;5102555;28;20428;-84
2023/07/26 12:01:58;;;;;;;1.25;0.70;;;;;;;25.80;52.19;93927.91;5093535;28;20039;-84
2023/07/26 12:04:23;;;;;;;1.23;0.80;;;;;;;26.35;51.04;93928.19;5111957;28;20109;-84
2023/07/26 12:06:48;;;;;;;1.77;1.00;;;;;;;26.14;48.82;93928.84;5093564;28;20051;-86
2023/07/26 12:09:15;;;;;;;1.83;0.90;;;;;;;26.27;51.78;93922.03;5091152;28;20092;-86
2023/07/26 12:14:56;;;;;;;2.28;0.95;;;;;;;25.34;49.38;93928.41;5115994;28;20336;-87
2023/07/26 12:20:08;;;;;;;2.10;1.00;;;;;;;26.60;48.18;93928.22;5099877;28;20038;-88
2023/07/26 12:22:34;;;;;;;1.65;0.95;;;;;;;26.18;47.90;93929.66;5098013;28;20023;-86
2023/07/26 12:25:02;;;;;;;2.05;0.95;;;;;;;26.33;50.29;93933.16;5097444;28;20069;-86
2023/07/26 12:27:33;;;;;;;2.00;1.10;;;;;;;26.90;51.47;93929.81;5098145;28;20118;-85
2023/07/26 12:30:01;;;;;;;2.83;1.00;;;;;;;26.88;48.83;93926.75;5115310;28;20032;-86
2023/07/26 12:32:45;;;;;;;2.42;1.00;;;;;;;26.46;48.83;93934.31;5079779;28;20170;-85
2023/07/26 12:35:21;;;;;;;5.32;0.77;;;;;;;25.95;46.75;93930.66;5093850;28;20028;-87
2023/07/26 12:37:49;;;;;;;1.80;0.98;;;;;;;26.62;46.88;93931.31;5077701;28;20085;-87
2023/07/26 12:40:19;;;;;;;1.40;0.95;;;;;;;26.80;44.40;93933.25;5077259;28;20060;-87
2023/07/26 12:45:29;;;;;;;1.80;1.00;;;;;;;27.42;49.21;93935.97;5079589;28;20039;-87
2023/07/26 12:47:54;;;;;;;1.92;0.70;;;;;;;27.05;45.50;93932.53;5094075;28;20032;-85
2023/07/26 12:50:20;;;;;;;1.25;0.80;;;;;;;26.09;47.84;93929.97;5094606;28;20040;-87
2023/07/26 12:53:25;;;;;;;4.78;1.02;;;;;;;25.21;51.42;93928.69;5076996;28;20043;-87
2023/07/26 12:55:54;;;;;;;2.13;0.90;;;;;;;25.55;53.89;93933.94;5095200;28;20685;-86
2023/07/26 12:58:19;;;;;;;2.00;1.00;;;;;;;25.50;50.84;93939.63;5095010;28;20363;-86
2023/07/26 13:03:29;;;;;;;1.88;0.93;;;;;;;26.09;48.81;93932.66;5077511;28;20391;-87
2023/07/26 13:05:56;;;;;;;3.97;0.70;;;;;;;26.96;43.56;93933.66;5092243;28;20136;-86
2023/07/26 13:08:40;;;;;;;1.83;0.95;;;;;;;26.30;47.72;93925.84;5096821;28;20024;-85
2023/07/26 13:11:06;;;;;;;2.33;0.73;;;;;;;26.27;50.62;93916.66;5096932;28;20051;-87
2023/07/26 13:13:32;;;;;;;2.97;0.73;;;;;;;26.38;45.19;93922.03;5103182;28;20064;-84
2023/07/26 13:16:00;;;;;;;1.20;0.82;;;;;;;27.09;46.39;93917.16;5109383;28;20029;-86
2023/07/26 13:18:26;;;;;;;2.03;0.90;;;;;;;27.40;44.65;93914.06;5097288;28;20027;-86
2023/07/26 13:20:53;;;;;;;2.13;1.02;;;;;;;26.80;45.71;93919.81;5068733;28;20692;-88
2023/07/26 13:23:18;;;;;;;1.65;0.80;;;;;;;26.86;44.92;93914.81;5094940;28;20036;-87
2023/07/26 13:25:46;;;;;;;2.00;0.60;;;;;;;27.86;43.94;93913.19;5060655;28;20405;-87
2023/07/26 13:28:11;;;;;;;0.90;0.60;;;;;;;28.64;41.64;93920.56;5076951;28;20035;-85
2023/07/26 13:30:37;;;;;;;4.63;0.80;;;;;;;28.70;41.97;93923.63;5076199;28;20039;-88
2023/07/26 13:33:02;;;;;;;1.85;0.70;;;;;;;29.12;42.44;93913.69;5095543;28;20036;-87